CheckWX is a tool to help pilots better visualize weather data.  It is not intended as a substitute for an official pre-flight weather briefing.

17:12:43 UTC

KLLJ METAR
Challis Airport
Challis, Idaho, USA
Current

18 mins ago

KLLJ 211655Z AUTO 02003KT 10SM CLR 22/02 A3020 RMK AO2 SLP162 T02170017 $
Observed
Jul-21 @ 16:55 UTC
Wind
  • 020° at 3 KTS
Visibility
10 SM
Flight Rules
VFR
Cloud Levels
  • Clear skies
Temperature
22°C / 72°F
Dewpoint
C / 36°F
Humidity
27%
Altimeter
30.2" Hg
Pressure
1022.72 hPa
Previous

1 hour ago

KLLJ 211555Z AUTO 04003KT 10SM CLR 19/02 A3022 RMK AO2 SLP170 T01890022 $
Observed
Jul-21 @ 15:55 UTC
Wind
  • 040° at 3 KTS
Visibility
10 SM
Flight Rules
VFR
Cloud Levels
  • Clear skies
Temperature
19°C / 66°F
Dewpoint
C / 36°F
Humidity
32%
Altimeter
30.22" Hg
Pressure
1023.42 hPa
Previous

2 hours ago

KLLJ 211455Z AUTO 08003KT 10SM CLR 16/02 A3022 RMK AO2 SLP173 T01610017 51012 $
Observed
Jul-21 @ 14:55 UTC
Wind
  • 080° at 3 KTS
Visibility
10 SM
Flight Rules
VFR
Cloud Levels
  • Clear skies
Temperature
16°C / 61°F
Dewpoint
C / 36°F
Humidity
39%
Altimeter
30.22" Hg
Pressure
1023.42 hPa